Hlavní strana
METAR-TAF:

METAR-TAF

Letiště :

Letiště Dublin

Dublin, Irsko

zeměpisná šířka: 53-26N, zeměpisná délka: 006-15W, výška: 68 m

Aktuální stav počasí

Zpráva byla vytvořena před 19 minutami, v 11:00 UTC
Západní vítr 11 kt
Teplota 7°C
Vlhkost vzduchu 76%
Tlak 1025 hPa
Viditelnost 10 km a více
Skoro jasno ve výšce 1700 ft

METAR: EIDW 251100Z 26011KT 9999 FEW017 07/03 Q1025 NOSIG

Čas: 11:19 (11:19 UTC)

Předpověď počasí

Zpráva byla vytvořena před 6 hodinami a 19 minutami, v 05:00 UTC
Předpověď platná od 25 v 06 UTC do 26 v 06 UTC
Jihozápadní vítr 10 kt
Viditelnost 10 km a více
Skoro jasno ve výšce 2200 ft
Změna
od 25 v 10 UTC do 25 v 12 UTC
Západní vítr 12 kt
Změna
od 25 v 17 UTC do 25 v 19 UTC
Západojihozápadní vítr 7 kt

TAF: EIDW 250500Z 2506/2606 23010KT 9999 FEW022 BECMG 2510/2512 27012KT BECMG 2517/2519 24007KT

Stav a předpovědi počasí z více než 4 000 letišť (zprávy METAR a TAF).

Červené a žluté tečky na mapě představují dostupné meteorologické stanice.

Když kurzor umístíte na tečku, zobrazí se název stanice.

Pak kliknutím zobrazíte stav a předpověď počasí.

Chcete-li změnit mapu, kliknutím na zelené tlačítko se znaménkem +mapu přiblížíte, kliknutím na zelené tlačítko se znaménkem – mapu oddálíte a kliknutím na zelené šipky přejdete na sousední mapy.


METAR-TAF: